createdAt,value
2022-11-17T00:00:43.400Z,99614.28
2022-11-17T00:03:15.577Z,99600.66
2022-11-17T00:05:43.617Z,99601.09
2022-11-17T00:08:11.054Z,99591.25
2022-11-17T00:10:38.556Z,99577.06
2022-11-17T00:13:24.055Z,99586.03
2022-11-17T00:15:52.094Z,99591.97
2022-11-17T00:18:37.604Z,99586.66
2022-11-17T00:21:21.749Z,99570.63
2022-11-17T00:23:50.690Z,99562.47
2022-11-17T00:26:21.041Z,99561.38
2022-11-17T00:28:53.297Z,99558.88
2022-11-17T00:31:40.961Z,99555.63
2022-11-17T00:34:19.235Z,99542.53
2022-11-17T00:36:51.814Z,99540.94
2022-11-17T00:39:21.660Z,99537.47
2022-11-17T00:41:48.936Z,99536.13
2022-11-17T00:44:16.741Z,99474.72
2022-11-17T00:46:44.475Z,99512.88
2022-11-17T00:49:12.232Z,99516.84
2022-11-17T00:51:39.892Z,99508.13
2022-11-17T00:54:10.523Z,99510.13
2022-11-17T00:56:38.008Z,99500.94
2022-11-17T00:59:05.765Z,99496.69
2022-11-17T01:01:33.148Z,99498.16
2022-11-17T01:04:04.428Z,99491.81
2022-11-17T01:06:34.700Z,99495.91
2022-11-17T01:09:04.955Z,99484.28
2022-11-17T01:11:32.649Z,99467.16
2022-11-17T01:14:00.880Z,99475.75
2022-11-17T01:16:29.512Z,99479.16
2022-11-17T01:18:59.917Z,99486.25
2022-11-17T01:21:28.584Z,99471.31
2022-11-17T01:23:57.223Z,99467.53
2022-11-17T01:26:27.352Z,99456.06
2022-11-17T01:28:55.926Z,99458.84
2022-11-17T01:31:26.397Z,99463.28
2022-11-17T01:33:54.393Z,99471.31
2022-11-17T01:36:52.800Z,99438.50
2022-11-17T01:39:22.728Z,99454.06
2022-11-17T01:41:50.136Z,99455.56
2022-11-17T01:44:44.294Z,99469.84
2022-11-17T01:47:36.277Z,99467.38
2022-11-17T01:50:10.353Z,99458.19
2022-11-17T01:52:40.742Z,99450.44
2022-11-17T01:55:10.525Z,99461.91
2022-11-17T01:57:54.630Z,99462.25
2022-11-17T02:00:22.120Z,99458.34
2022-11-17T02:02:50.280Z,99460.81
2022-11-17T02:05:40.558Z,99451.28
2022-11-17T02:08:08.883Z,99450.94
2022-11-17T02:10:37.761Z,99463.41
2022-11-17T02:13:05.707Z,99447.84
2022-11-17T02:15:32.967Z,99439.28
2022-11-17T02:18:01.483Z,99446.31
2022-11-17T02:20:53.885Z,99451.75
2022-11-17T02:23:51.505Z,99444.38
2022-11-17T02:26:52.611Z,99433.88
2022-11-17T02:29:48.312Z,99433.88
2022-11-17T02:32:31.067Z,99438.66
2022-11-17T02:35:54.257Z,99426.66
2022-11-17T02:38:46.049Z,99437.13
2022-11-17T02:41:23.778Z,99437.63
2022-11-17T02:44:30.331Z,99430.09
2022-11-17T02:47:09.348Z,99427.66
2022-11-17T02:49:40.375Z,99421.63
2022-11-17T02:52:09.844Z,99409.28
2022-11-17T02:54:37.250Z,99410.72
2022-11-17T02:57:04.840Z,99391.59
2022-11-17T02:59:41.866Z,99423.78
2022-11-17T03:02:48.122Z,99425.34
2022-11-17T03:05:39.941Z,99425.06
2022-11-17T03:08:32.983Z,99431.91
2022-11-17T03:11:03.887Z,99424.00
2022-11-17T03:13:43.590Z,99417.72
2022-11-17T03:16:38.030Z,99422.09
2022-11-17T03:19:16.293Z,99413.91
2022-11-17T03:22:08.721Z,99410.16
2022-11-17T03:24:58.733Z,99410.47
2022-11-17T03:27:30.622Z,99403.53
2022-11-17T03:30:02.460Z,99404.41
2022-11-17T03:32:36.698Z,99409.66
2022-11-17T03:35:10.460Z,99410.00
2022-11-17T03:37:42.322Z,99402.97
2022-11-17T03:40:13.828Z,99405.19
2022-11-17T03:42:47.026Z,99386.31
2022-11-17T03:45:50.634Z,99409.84
2022-11-17T03:48:30.374Z,99401.78
2022-11-17T03:51:18.375Z,99404.56
2022-11-17T03:53:47.099Z,99404.22
2022-11-17T03:56:29.640Z,99400.03
2022-11-17T03:59:02.323Z,99399.66
2022-11-17T04:01:32.647Z,99399.03
2022-11-17T04:04:00.801Z,99391.53
2022-11-17T04:06:28.073Z,99393.50
2022-11-17T04:08:56.605Z,99403.31
2022-11-17T04:11:42.184Z,99396.59
2022-11-17T04:14:29.614Z,99372.28
2022-11-17T04:16:56.968Z,99402.19
2022-11-17T04:19:26.205Z,99391.06
2022-11-17T04:21:53.482Z,99390.63
2022-11-17T04:24:20.668Z,99394.69
2022-11-17T04:27:06.620Z,99377.97
2022-11-17T04:29:35.195Z,99367.38
2022-11-17T04:32:02.415Z,99365.22
2022-11-17T04:34:29.729Z,99388.22
2022-11-17T04:36:57.106Z,99388.84
2022-11-17T04:39:24.420Z,99388.75
2022-11-17T04:41:54.439Z,99397.34
2022-11-17T04:44:27.678Z,99400.03
2022-11-17T04:46:56.308Z,99398.81
2022-11-17T04:49:25.428Z,99394.78
2022-11-17T04:51:53.906Z,99401.22
2022-11-17T04:54:24.835Z,99385.75
2022-11-17T04:56:53.588Z,99390.03
2022-11-17T04:59:23.403Z,99389.22
2022-11-17T05:01:50.794Z,99379.03
2022-11-17T05:04:40.311Z,99384.41
2022-11-17T05:07:09.224Z,99373.00
2022-11-17T05:09:36.895Z,99384.72
2022-11-17T05:12:22.625Z,99384.72
2022-11-17T05:14:50.698Z,99383.88
2022-11-17T05:17:18.628Z,99397.25
2022-11-17T05:19:47.570Z,99394.41
2022-11-17T05:22:40.068Z,99394.94
2022-11-17T05:25:08.325Z,99395.69
2022-11-17T05:27:36.164Z,99396.38
2022-11-17T05:30:07.313Z,99392.41
2022-11-17T05:32:35.394Z,99392.25
2022-11-17T05:35:02.599Z,99389.50
2022-11-17T05:37:30.275Z,99387.72
2022-11-17T05:39:57.684Z,99397.06
2022-11-17T05:42:25.064Z,99390.81
2022-11-17T05:44:52.357Z,99396.25
2022-11-17T05:47:20.127Z,99389.28
2022-11-17T05:49:50.416Z,99376.78
2022-11-17T05:52:17.665Z,99376.56
2022-11-17T05:54:45.117Z,99367.72
2022-11-17T05:57:22.072Z,99344.78
2022-11-17T05:59:57.143Z,99365.72
2022-11-17T06:02:32.265Z,99371.44
2022-11-17T06:04:59.603Z,99362.84
2022-11-17T06:07:26.985Z,99379.16
2022-11-17T06:09:55.223Z,99371.50
2022-11-17T06:12:22.485Z,99379.59
2022-11-17T06:14:49.845Z,99350.13
2022-11-17T06:17:23.304Z,99363.03
2022-11-17T06:20:05.709Z,99362.75
2022-11-17T06:22:33.774Z,99359.53
2022-11-17T06:25:04.609Z,99350.56
2022-11-17T06:27:33.536Z,99364.03
2022-11-17T06:30:03.828Z,99360.19
2022-11-17T06:32:36.924Z,99355.16
2022-11-17T06:35:08.164Z,99355.88
2022-11-17T06:37:35.734Z,99356.34
2022-11-17T06:40:03.453Z,99358.78
2022-11-17T06:42:49.835Z,99350.59
2022-11-17T06:45:17.495Z,99348.25
2022-11-17T06:47:46.312Z,99351.13
2022-11-17T06:50:15.329Z,99361.63
2022-11-17T06:52:42.516Z,99359.25
2022-11-17T06:55:10.435Z,99359.72
2022-11-17T06:57:37.787Z,99360.00
2022-11-17T07:00:06.611Z,99344.81
2022-11-17T07:02:33.875Z,99336.94
2022-11-17T07:05:01.273Z,99339.00
2022-11-17T07:07:28.927Z,99337.88
2022-11-17T07:10:00.731Z,99351.56
2022-11-17T07:12:30.378Z,99349.00
2022-11-17T07:14:57.461Z,99347.47
2022-11-17T07:17:24.748Z,99339.13
2022-11-17T07:19:53.718Z,99345.84
2022-11-17T07:22:20.884Z,99351.97
2022-11-17T07:24:47.949Z,99347.47
2022-11-17T07:27:15.073Z,99342.56
2022-11-17T07:29:42.204Z,99337.72
2022-11-17T07:32:13.857Z,99345.91
2022-11-17T07:34:41.548Z,99343.28
2022-11-17T07:37:08.998Z,99347.47
2022-11-17T07:39:36.124Z,99346.09
2022-11-17T07:42:03.584Z,99348.06
2022-11-17T07:44:31.866Z,99348.19
2022-11-17T07:46:59.059Z,99355.03
2022-11-17T07:49:27.332Z,99351.13
2022-11-17T07:51:56.869Z,99341.41
2022-11-17T07:54:24.151Z,99350.59
2022-11-17T07:56:51.360Z,99337.19
2022-11-17T07:59:21.405Z,99329.72
2022-11-17T08:01:49.047Z,99334.91
2022-11-17T08:04:16.403Z,99329.28
2022-11-17T08:06:43.508Z,99335.56
2022-11-17T08:09:13.649Z,99340.28
2022-11-17T08:11:41.152Z,99332.31
2022-11-17T08:14:08.408Z,99334.41
2022-11-17T08:16:35.944Z,99321.97
2022-11-17T08:19:06.220Z,99328.59
2022-11-17T08:21:33.513Z,99317.38
2022-11-17T08:24:00.652Z,99318.72
2022-11-17T08:26:27.988Z,99321.34
2022-11-17T08:28:58.899Z,99328.78
2022-11-17T08:31:27.101Z,99327.34
2022-11-17T08:33:54.392Z,99315.47
2022-11-17T08:36:21.737Z,99315.00
2022-11-17T08:38:49.290Z,99295.03
2022-11-17T08:41:16.963Z,99290.97
2022-11-17T08:43:44.068Z,99294.69
2022-11-17T08:46:14.356Z,99305.44
2022-11-17T08:48:41.640Z,99298.72
2022-11-17T08:51:10.549Z,99288.88
2022-11-17T08:53:37.781Z,99296.31
2022-11-17T08:56:10.177Z,99284.81
2022-11-17T08:58:44.017Z,99290.41
2022-11-17T09:01:16.614Z,99285.50
2022-11-17T09:03:47.409Z,99291.72
2022-11-17T09:06:16.623Z,99294.66
2022-11-17T09:08:46.827Z,99275.44
2022-11-17T09:11:15.143Z,99283.84
2022-11-17T09:13:42.581Z,99290.09
2022-11-17T09:16:12.038Z,99285.56
2022-11-17T09:18:40.341Z,99289.78
2022-11-17T09:21:11.623Z,99284.16
2022-11-17T09:23:39.460Z,99282.97
2022-11-17T09:26:13.610Z,99270.97
2022-11-17T09:28:45.951Z,99274.22
2022-11-17T09:31:15.736Z,99279.50
2022-11-17T09:33:44.195Z,99262.31
2022-11-17T09:36:14.079Z,99273.41
2022-11-17T09:38:42.290Z,99287.28
2022-11-17T09:41:15.758Z,99281.66
2022-11-17T09:43:58.766Z,99275.19
2022-11-17T09:46:45.701Z,99263.41
2022-11-17T09:49:22.346Z,99267.78
2022-11-17T09:51:51.098Z,99262.06
2022-11-17T09:54:30.464Z,99272.88
2022-11-17T09:56:59.810Z,99271.28
2022-11-17T09:59:29.248Z,99272.22
2022-11-17T10:01:56.564Z,99275.41
2022-11-17T10:04:26.961Z,99268.16
2022-11-17T10:06:54.649Z,99272.09
2022-11-17T10:09:36.535Z,99279.50
2022-11-17T10:12:18.508Z,99262.88
2022-11-17T10:14:49.119Z,99262.63
2022-11-17T10:17:18.334Z,99257.13
2022-11-17T10:19:46.006Z,99284.88
2022-11-17T10:22:52.636Z,99276.50
2022-11-17T10:25:39.554Z,99265.34
2022-11-17T10:28:08.795Z,99261.72
2022-11-17T10:30:36.743Z,99259.47
2022-11-17T10:33:04.776Z,99249.00
2022-11-17T10:35:35.487Z,99261.47
2022-11-17T10:38:17.522Z,99273.00
2022-11-17T10:40:45.519Z,99263.81
2022-11-17T10:43:12.834Z,99275.06
2022-11-17T10:45:51.204Z,99261.00
2022-11-17T10:48:36.324Z,99257.38
2022-11-17T10:51:13.208Z,99266.88
2022-11-17T10:53:46.243Z,99267.81
2022-11-17T10:56:21.802Z,99264.69
2022-11-17T10:59:03.918Z,99280.44
2022-11-17T11:01:39.423Z,99288.44
2022-11-17T11:04:28.419Z,99284.84
2022-11-17T11:07:20.180Z,99280.91
2022-11-17T11:09:59.986Z,99295.34
2022-11-17T11:12:48.745Z,99292.97
2022-11-17T11:15:20.990Z,99293.31
2022-11-17T11:17:48.337Z,99289.03
2022-11-17T11:20:18.636Z,99290.59
2022-11-17T11:23:09.912Z,99293.94
2022-11-17T11:25:51.735Z,99294.22
2022-11-17T11:28:48.136Z,99281.28
2022-11-17T11:31:42.443Z,99272.47
2022-11-17T11:34:28.679Z,99282.53
2022-11-17T11:37:16.684Z,99268.09
2022-11-17T11:39:59.199Z,99275.72
2022-11-17T11:42:57.161Z,99279.06
2022-11-17T11:45:33.430Z,99279.44
2022-11-17T11:48:28.403Z,99272.94
2022-11-17T11:51:05.643Z,99262.06
2022-11-17T11:53:38.628Z,99284.59
2022-11-17T11:56:15.149Z,99284.97
2022-11-17T11:59:10.446Z,99288.69
2022-11-17T12:01:47.988Z,99286.91
2022-11-17T12:04:46.293Z,99299.69
2022-11-17T12:07:19.807Z,99301.75
2022-11-17T12:10:05.581Z,99316.97
2022-11-17T12:12:39.501Z,99297.66
2022-11-17T12:15:06.581Z,99297.66
2022-11-17T12:17:35.680Z,99299.59
2022-11-17T12:20:10.732Z,99294.06
2022-11-17T12:22:55.507Z,99315.69
2022-11-17T12:25:32.004Z,99295.31
2022-11-17T12:27:59.297Z,99299.09
2022-11-17T12:30:39.181Z,99318.44
2022-11-17T12:33:09.833Z,99310.75
2022-11-17T12:35:41.609Z,99318.88
2022-11-17T12:38:17.847Z,99318.06
2022-11-17T12:40:52.405Z,99328.78
2022-11-17T12:43:22.689Z,99316.72
2022-11-17T12:45:52.935Z,99321.16
2022-11-17T12:48:34.392Z,99334.09
2022-11-17T12:51:22.439Z,99333.19
2022-11-17T12:54:28.569Z,99346.69
2022-11-17T12:57:16.861Z,99334.19
2022-11-17T13:00:24.807Z,99320.59
2022-11-17T13:03:12.178Z,99328.38
2022-11-17T13:05:39.398Z,99337.91
2022-11-17T13:08:09.812Z,99328.22
2022-11-17T13:10:37.035Z,99303.03
2022-11-17T13:13:18.647Z,99327.25
2022-11-17T13:15:53.889Z,99303.50
2022-11-17T13:18:28.290Z,99317.41
2022-11-17T13:20:56.235Z,99313.47
2022-11-17T13:23:32.144Z,99326.03
2022-11-17T13:26:26.612Z,99325.50
2022-11-17T13:29:14.494Z,99331.38
2022-11-17T13:31:41.832Z,99306.28
2022-11-17T13:34:21.438Z,99304.28
2022-11-17T13:37:01.696Z,99325.13
2022-11-17T13:39:29.209Z,99327.03
2022-11-17T13:41:57.515Z,99305.16
2022-11-17T13:44:27.973Z,99346.06
2022-11-17T13:46:56.337Z,99345.34
2022-11-17T13:49:38.233Z,99334.81
2022-11-17T13:52:13.042Z,99332.81
2022-11-17T13:54:46.416Z,99322.19
2022-11-17T13:57:25.970Z,99327.88
2022-11-17T13:59:55.203Z,99335.03
2022-11-17T14:02:25.050Z,99324.53
2022-11-17T14:05:11.249Z,99331.66
2022-11-17T14:07:39.603Z,99337.25
2022-11-17T14:10:23.604Z,99333.63
2022-11-17T14:13:14.687Z,99357.31
2022-11-17T14:15:43.142Z,99336.47
2022-11-17T14:18:46.649Z,99333.38
2022-11-17T14:21:17.871Z,99333.19
2022-11-17T14:23:46.202Z,99326.19
2022-11-17T14:26:22.458Z,99331.59
2022-11-17T14:28:51.105Z,99330.94
2022-11-17T14:31:19.458Z,99320.31
2022-11-17T14:33:47.055Z,99313.22
2022-11-17T14:36:16.868Z,99330.59
2022-11-17T14:38:48.374Z,99320.84
2022-11-17T14:41:17.871Z,99314.03
2022-11-17T14:43:45.239Z,99300.97
2022-11-17T14:46:21.889Z,99312.31
2022-11-17T14:48:49.530Z,99318.63
2022-11-17T14:51:17.142Z,99314.94
2022-11-17T14:53:46.191Z,99319.66
2022-11-17T14:56:16.700Z,99314.06
2022-11-17T14:58:44.287Z,99306.31
2022-11-17T15:01:17.778Z,99280.44
2022-11-17T15:03:45.762Z,99294.06
2022-11-17T15:06:19.481Z,99293.81
2022-11-17T15:08:48.808Z,99309.59
2022-11-17T15:11:18.339Z,99306.00
2022-11-17T15:13:46.078Z,99296.78
2022-11-17T15:16:13.792Z,99296.75
2022-11-17T15:18:41.017Z,99304.69
2022-11-17T15:21:10.388Z,99305.63
2022-11-17T15:23:39.180Z,99305.84
2022-11-17T15:26:08.438Z,99306.78
2022-11-17T15:28:35.872Z,99285.31
2022-11-17T15:31:17.001Z,99295.69
2022-11-17T15:33:46.843Z,99294.84
2022-11-17T15:36:17.066Z,99305.53
2022-11-17T15:38:45.275Z,99299.00
2022-11-17T15:41:13.768Z,99296.25
2022-11-17T15:43:43.872Z,99302.22
2022-11-17T15:46:20.812Z,99306.66
2022-11-17T15:48:52.296Z,99283.19
2022-11-17T15:51:22.623Z,99305.09
2022-11-17T15:53:51.690Z,99271.38
2022-11-17T15:56:21.885Z,99282.28
2022-11-17T15:58:54.612Z,99288.41
2022-11-17T16:01:27.995Z,99282.31
2022-11-17T16:04:01.560Z,99290.09
2022-11-17T16:06:30.528Z,99288.16
2022-11-17T16:08:58.179Z,99282.03
2022-11-17T16:11:27.313Z,99280.69
2022-11-17T16:13:58.981Z,99278.28
2022-11-17T16:16:29.178Z,99267.22
2022-11-17T16:18:57.305Z,99269.53
2022-11-17T16:21:24.713Z,99267.41
2022-11-17T16:23:55.112Z,99271.84
2022-11-17T16:26:24.541Z,99266.31
2022-11-17T16:29:04.299Z,99248.63
2022-11-17T16:31:33.859Z,99255.22
2022-11-17T16:34:06.426Z,99258.38
2022-11-17T16:36:37.529Z,99247.03
2022-11-17T16:39:07.617Z,99246.22
2022-11-17T16:41:37.465Z,99238.47
2022-11-17T16:44:17.780Z,99231.88
2022-11-17T16:46:47.697Z,99230.97
2022-11-17T16:49:17.227Z,99220.44
2022-11-17T16:51:52.818Z,99220.78
2022-11-17T16:54:21.906Z,99206.06
2022-11-17T16:56:49.416Z,99209.13
2022-11-17T16:59:17.353Z,99207.75
2022-11-17T17:01:44.737Z,99209.69
2022-11-17T17:04:13.102Z,99213.34
2022-11-17T17:06:43.070Z,99201.69
2022-11-17T17:09:13.162Z,99195.53
2022-11-17T17:11:40.829Z,99199.63
2022-11-17T17:14:11.603Z,99198.81
2022-11-17T17:16:40.116Z,99182.00
2022-11-17T17:19:10.439Z,99178.50
2022-11-17T17:21:39.220Z,99180.78
2022-11-17T17:24:07.489Z,99172.69
2022-11-17T17:26:36.553Z,99176.78
2022-11-17T17:29:06.113Z,99179.34
2022-11-17T17:31:37.882Z,99170.19
2022-11-17T17:34:06.646Z,99160.34
2022-11-17T17:36:35.344Z,99172.78
2022-11-17T17:39:03.213Z,99157.47
2022-11-17T17:41:40.551Z,99173.50
2022-11-17T17:44:13.619Z,99165.81
2022-11-17T17:46:41.119Z,99159.09
2022-11-17T17:49:09.363Z,99153.34
2022-11-17T17:51:40.212Z,99153.25
2022-11-17T17:54:08.009Z,99157.00
2022-11-17T17:56:35.643Z,99157.19
2022-11-17T17:59:04.996Z,99156.59
2022-11-17T18:01:34.236Z,99153.31
2022-11-17T18:04:05.250Z,99155.94
2022-11-17T18:06:42.474Z,99163.84
2022-11-17T18:09:11.205Z,99149.78
2022-11-17T18:11:45.989Z,99143.56
2022-11-17T18:14:15.601Z,99146.47
2022-11-17T18:16:44.814Z,99140.94
2022-11-17T18:19:15.952Z,99139.88
2022-11-17T18:21:43.912Z,99141.06
2022-11-17T18:24:12.873Z,99127.50
2022-11-17T18:26:41.647Z,99127.59
2022-11-17T18:29:13.852Z,99131.47
2022-11-17T18:31:41.640Z,99122.66
2022-11-17T18:34:15.237Z,99131.31
2022-11-17T18:36:43.036Z,99130.16
2022-11-17T18:39:11.002Z,99117.34
2022-11-17T18:41:38.473Z,99113.78
2022-11-17T18:44:06.162Z,99114.34
2022-11-17T18:46:34.139Z,99109.59
2022-11-17T18:49:01.710Z,99091.00
2022-11-17T18:51:31.040Z,99102.44
2022-11-17T18:54:01.243Z,99092.84
2022-11-17T18:56:32.813Z,99091.22
2022-11-17T18:59:01.699Z,99100.53
2022-11-17T19:01:30.823Z,99099.81
2022-11-17T19:04:01.188Z,99090.59
2022-11-17T19:06:30.712Z,99097.47
2022-11-17T19:09:00.021Z,99083.78
2022-11-17T19:11:30.245Z,99080.94
2022-11-17T19:13:59.211Z,99078.53
2022-11-17T19:16:27.328Z,99070.97
2022-11-17T19:18:56.022Z,99068.63
2022-11-17T19:21:27.495Z,99054.53
2022-11-17T19:23:58.346Z,99059.13
2022-11-17T19:26:31.853Z,99054.75
2022-11-17T19:29:14.322Z,99045.13
2022-11-17T19:31:45.068Z,99041.06
2022-11-17T19:34:12.526Z,99046.41
2022-11-17T19:36:39.938Z,99044.41
2022-11-17T19:39:07.441Z,99042.34
2022-11-17T19:41:40.034Z,99052.09
2022-11-17T19:44:08.989Z,99040.34
2022-11-17T19:46:36.585Z,99028.22
2022-11-17T19:49:06.030Z,99037.97
2022-11-17T19:51:38.504Z,99048.44
2022-11-17T19:54:14.650Z,99032.59
2022-11-17T19:56:42.161Z,99035.53
2022-11-17T19:59:15.566Z,99031.06
2022-11-17T20:01:43.594Z,99016.66
2022-11-17T20:04:10.916Z,98999.63
2022-11-17T20:06:39.800Z,99017.13
2022-11-17T20:09:13.677Z,99016.41
2022-11-17T20:11:42.252Z,98999.47
2022-11-17T20:14:10.266Z,98999.09
2022-11-17T20:16:38.977Z,98999.47
2022-11-17T20:19:06.654Z,99007.97
2022-11-17T20:21:34.985Z,98988.19
2022-11-17T20:24:02.911Z,98992.25
2022-11-17T20:26:36.034Z,98994.66
2022-11-17T20:29:03.549Z,98989.88
2022-11-17T20:31:33.780Z,98976.09
2022-11-17T20:34:02.664Z,98983.03
2022-11-17T20:36:32.275Z,98973.38
2022-11-17T20:39:02.284Z,98971.72
2022-11-17T20:41:30.511Z,98953.88
2022-11-17T20:43:59.635Z,98967.25
2022-11-17T20:46:27.196Z,98960.44
2022-11-17T20:48:54.919Z,98953.59
2022-11-17T20:51:23.994Z,98957.69
2022-11-17T20:53:51.853Z,98954.06
2022-11-17T20:56:20.081Z,98943.94
2022-11-17T20:58:47.663Z,98932.69
2022-11-17T21:01:20.114Z,98919.41
2022-11-17T21:03:47.918Z,98915.75
2022-11-17T21:06:16.498Z,98922.28
2022-11-17T21:08:45.382Z,98915.81
2022-11-17T21:11:36.719Z,98895.56
2022-11-17T21:14:05.904Z,98899.69
2022-11-17T21:16:34.775Z,98898.56
2022-11-17T21:19:02.248Z,98878.31
2022-11-17T21:21:30.479Z,98892.91
2022-11-17T21:23:57.872Z,98886.09
2022-11-17T21:26:25.244Z,98871.97
2022-11-17T21:28:52.693Z,98863.88
2022-11-17T21:31:22.529Z,98861.47
2022-11-17T21:33:53.951Z,98853.78
2022-11-17T21:36:23.080Z,98862.75
2022-11-17T21:38:51.172Z,98828.41
2022-11-17T21:41:26.603Z,98844.16
2022-11-17T21:43:55.198Z,98851.03
2022-11-17T21:46:26.439Z,98830.06
2022-11-17T21:48:55.956Z,98846.25
2022-11-17T21:51:26.287Z,98842.56
2022-11-17T21:53:56.072Z,98832.91
2022-11-17T21:56:27.138Z,98828.91
2022-11-17T21:58:58.886Z,98830.91
2022-11-17T22:01:26.477Z,98802.25
2022-11-17T22:03:53.701Z,98815.91
2022-11-17T22:06:23.312Z,98814.75
2022-11-17T22:08:51.431Z,98819.16
2022-11-17T22:11:37.016Z,98816.34
2022-11-17T22:14:12.025Z,98815.53
2022-11-17T22:16:42.137Z,98801.41
2022-11-17T22:19:10.614Z,98809.44
2022-11-17T22:21:39.010Z,98796.97
2022-11-17T22:24:07.954Z,98794.06
2022-11-17T22:26:38.385Z,98802.94
2022-11-17T22:29:08.948Z,98791.66
2022-11-17T22:31:36.052Z,98783.56
2022-11-17T22:34:03.883Z,98773.81
2022-11-17T22:36:31.343Z,98781.91
2022-11-17T22:38:58.593Z,98765.78
2022-11-17T22:41:26.611Z,98781.13
2022-11-17T22:43:56.066Z,98757.28
2022-11-17T22:46:26.206Z,98760.50
2022-11-17T22:48:54.046Z,98773.00
2022-11-17T22:51:40.428Z,98764.94
2022-11-17T22:54:08.869Z,98746.34
2022-11-17T22:56:36.484Z,98749.56
2022-11-17T22:59:04.136Z,98744.72
2022-11-17T23:01:31.677Z,98736.66
2022-11-17T23:03:59.620Z,98748.72
2022-11-17T23:06:30.194Z,98753.97
2022-11-17T23:09:00.145Z,98731.72
2022-11-17T23:11:37.160Z,98732.56
2022-11-17T23:14:08.210Z,98739.88
2022-11-17T23:16:36.976Z,98722.97
2022-11-17T23:19:05.275Z,98734.69
2022-11-17T23:21:33.153Z,98721.34
2022-11-17T23:24:00.386Z,98734.28
2022-11-17T23:26:27.820Z,98729.41
2022-11-17T23:28:55.283Z,98736.66
2022-11-17T23:31:22.596Z,98731.84
2022-11-17T23:33:50.079Z,98719.72
2022-11-17T23:36:20.361Z,98739.81
2022-11-17T23:38:48.955Z,98737.44
2022-11-17T23:41:19.316Z,98743.00
2022-11-17T23:43:46.775Z,98726.00
2022-11-17T23:46:16.789Z,98736.91
2022-11-17T23:48:44.847Z,98740.47
2022-11-17T23:51:15.955Z,98734.78
2022-11-17T23:53:43.684Z,98715.50
2022-11-17T23:56:11.370Z,98718.75
2022-11-17T23:58:42.137Z,98710.72
